createdAt,value
2017-06-13T00:00:33.845Z,57.98
2017-06-13T00:01:44.237Z,58.27
2017-06-13T00:02:54.588Z,58.27
2017-06-13T00:04:04.931Z,57.88
2017-06-13T00:05:14.975Z,58.07
2017-06-13T00:06:25.331Z,58.27
2017-06-13T00:07:35.685Z,58.37
2017-06-13T00:08:46.113Z,58.24
2017-06-13T00:09:55.834Z,58.34
2017-06-13T00:11:06.180Z,58.24
2017-06-13T00:12:16.538Z,58.14
2017-06-13T00:13:26.922Z,58.44
2017-06-13T00:14:37.274Z,58.34
2017-06-13T00:15:47.643Z,58.44
2017-06-13T00:16:57.996Z,58.14
2017-06-13T00:18:08.022Z,58.14
2017-06-13T00:19:18.424Z,58.34
2017-06-13T00:20:28.460Z,58.34
2017-06-13T00:21:38.800Z,57.95
2017-06-13T00:22:49.148Z,58.04
2017-06-13T00:23:59.517Z,58.04
2017-06-13T00:25:09.606Z,58.44
2017-06-13T00:26:19.964Z,58.31
2017-06-13T00:27:30.315Z,58.12
2017-06-13T00:28:40.683Z,58.21
2017-06-13T00:29:51.070Z,58.12
2017-06-13T00:31:01.417Z,58.12
2017-06-13T00:32:11.812Z,58.31
2017-06-13T00:33:22.152Z,58.12
2017-06-13T00:34:32.194Z,58.02
2017-06-13T00:35:42.231Z,58.31
2017-06-13T00:36:52.580Z,58.12
2017-06-13T00:38:02.665Z,58.28
2017-06-13T00:39:13.023Z,57.99
2017-06-13T00:40:23.366Z,57.89
2017-06-13T00:41:33.744Z,58.28
2017-06-13T00:42:44.145Z,58.18
2017-06-13T00:43:54.506Z,57.79
2017-06-13T00:45:04.864Z,57.89
2017-06-13T00:46:15.210Z,57.79
2017-06-13T00:47:25.558Z,57.87
2017-06-13T00:48:35.940Z,57.77
2017-06-13T00:49:46.296Z,58.25
2017-06-13T00:50:56.632Z,57.96
2017-06-13T00:52:06.975Z,57.77
2017-06-13T00:53:17.007Z,57.77
2017-06-13T00:54:27.412Z,57.96
2017-06-13T00:55:37.797Z,57.77
2017-06-13T00:56:48.131Z,57.77
2017-06-13T00:57:58.179Z,57.96
2017-06-13T00:59:08.525Z,58.06
2017-06-13T01:00:18.617Z,58.06
2017-06-13T01:01:28.656Z,58.15
2017-06-13T01:02:38.691Z,58.15
2017-06-13T01:03:48.726Z,57.87
2017-06-13T01:04:59.082Z,57.87
2017-06-13T01:06:09.473Z,57.93
2017-06-13T01:07:19.500Z,58.06
2017-06-13T01:08:29.847Z,57.96
2017-06-13T01:09:40.190Z,57.93
2017-06-13T01:10:49.907Z,57.93
2017-06-13T01:12:00.043Z,57.93
2017-06-13T01:13:10.066Z,57.84
2017-06-13T01:14:20.441Z,57.84
2017-06-13T01:15:30.799Z,57.84
2017-06-13T01:16:40.513Z,57.84
2017-06-13T01:17:50.538Z,58.03
2017-06-13T01:19:00.880Z,57.64
2017-06-13T01:20:10.921Z,58.03
2017-06-13T01:21:20.957Z,57.81
2017-06-13T01:22:31.307Z,58.03
2017-06-13T01:23:41.700Z,58.03
2017-06-13T01:24:52.047Z,58
2017-06-13T01:26:02.405Z,57.84
2017-06-13T01:27:12.755Z,57.9
2017-06-13T01:28:23.096Z,57.9
2017-06-13T01:29:33.433Z,57.81
2017-06-13T01:30:43.787Z,57.9
2017-06-13T01:31:53.849Z,57.81
2017-06-13T01:33:03.885Z,57.9
2017-06-13T01:34:13.919Z,57.81
2017-06-13T01:35:23.989Z,57.71
2017-06-13T01:36:34.016Z,57.81
2017-06-13T01:37:44.373Z,57.81
2017-06-13T01:38:54.400Z,57.81
2017-06-13T01:40:04.749Z,57.81
2017-06-13T01:41:14.787Z,57.81
2017-06-13T01:42:24.805Z,57.81
2017-06-13T01:43:34.837Z,57.71
2017-06-13T01:44:44.919Z,57.62
2017-06-13T01:45:54.960Z,57.71
2017-06-13T01:47:05.051Z,57.62
2017-06-13T01:48:15.399Z,57.81
2017-06-13T01:49:25.727Z,57.81
2017-06-13T01:50:35.776Z,57.81
2017-06-13T01:51:46.129Z,57.81
2017-06-13T01:52:56.158Z,57.81
2017-06-13T01:54:06.198Z,57.62
2017-06-13T01:55:16.554Z,57.9
2017-06-13T01:56:26.920Z,57.81
2017-06-13T01:57:37.311Z,57.81
2017-06-13T01:58:47.398Z,57.78
2017-06-13T01:59:57.755Z,57.71
2017-06-13T02:01:08.090Z,57.78
2017-06-13T02:02:18.120Z,57.78
2017-06-13T02:03:28.456Z,57.59
2017-06-13T02:04:38.553Z,57.78
2017-06-13T02:05:48.900Z,57.68
2017-06-13T02:06:58.931Z,57.78
2017-06-13T02:08:09.284Z,57.78
2017-06-13T02:09:19.341Z,57.68
2017-06-13T02:10:28.815Z,57.68
2017-06-13T02:11:39.171Z,57.97
2017-06-13T02:12:49.518Z,57.97
2017-06-13T02:13:59.863Z,57.78
2017-06-13T02:15:10.214Z,58.07
2017-06-13T02:16:20.245Z,57.78
2017-06-13T02:17:30.612Z,57.97
2017-06-13T02:18:40.963Z,57.97
2017-06-13T02:19:51.306Z,58.07
2017-06-13T02:21:01.350Z,58.07
2017-06-13T02:22:11.447Z,58.07
2017-06-13T02:23:21.793Z,57.59
2017-06-13T02:24:32.157Z,58.07
2017-06-13T02:25:42.497Z,58.07
2017-06-13T02:26:52.845Z,58.07
2017-06-13T02:28:02.931Z,57.97
2017-06-13T02:29:12.960Z,57.87
2017-06-13T02:30:23.306Z,57.78
2017-06-13T02:31:33.371Z,57.87
2017-06-13T02:32:43.405Z,57.97
2017-06-13T02:33:53.798Z,57.85
2017-06-13T02:35:03.843Z,57.78
2017-06-13T02:36:13.572Z,57.78
2017-06-13T02:37:23.915Z,58.14
2017-06-13T02:38:33.958Z,58.17
2017-06-13T02:39:44.343Z,57.75
2017-06-13T02:40:54.381Z,57.85
2017-06-13T02:42:04.730Z,58.04
2017-06-13T02:43:15.115Z,58.04
2017-06-13T02:44:25.458Z,58.14
2017-06-13T02:45:35.530Z,58.14
2017-06-13T02:46:45.264Z,58.04
2017-06-13T02:47:55.289Z,57.75
2017-06-13T02:49:05.635Z,57.65
2017-06-13T02:50:15.672Z,58.04
2017-06-13T02:51:26.065Z,57.75
2017-06-13T02:52:36.101Z,57.65
2017-06-13T02:53:46.438Z,57.65
2017-06-13T02:54:56.789Z,57.65
2017-06-13T02:56:06.818Z,57.17
2017-06-13T02:57:17.219Z,57.65
2017-06-13T02:58:27.590Z,57.37
2017-06-13T02:59:37.932Z,57.65
2017-06-13T03:00:47.973Z,57.75
2017-06-13T03:01:58.314Z,57.56
2017-06-13T03:33:20.230Z,54.31
2017-06-13T03:34:30.265Z,54.79
2017-06-13T03:35:39.974Z,55.76
2017-06-13T03:36:50.559Z,56.33
2017-06-13T03:38:00.903Z,56.23
2017-06-13T03:39:11.256Z,56.65
2017-06-13T03:40:21.601Z,57.13
2017-06-13T03:41:31.628Z,57.22
2017-06-13T03:42:41.968Z,57.22
2017-06-13T03:43:51.690Z,57.06
2017-06-13T03:45:02.145Z,57.54
2017-06-13T03:46:12.199Z,57.54
2017-06-13T03:47:22.554Z,57.57
2017-06-13T03:48:32.567Z,57.28
2017-06-13T03:49:42.286Z,57.09
2017-06-13T03:50:52.665Z,57.21
2017-06-13T03:52:02.999Z,57.31
2017-06-13T03:53:13.337Z,57.53
2017-06-13T03:54:23.679Z,57.72
2017-06-13T03:55:33.711Z,57.24
2017-06-13T03:56:43.422Z,57.24
2017-06-13T03:57:53.138Z,57.24
2017-06-13T03:59:03.485Z,57.24
2017-06-13T04:00:13.832Z,57.17
2017-06-13T04:01:24.174Z,57.56
2017-06-13T04:02:33.953Z,57.62
2017-06-13T04:03:44.305Z,56.98
2017-06-13T04:04:54.657Z,56.79
2017-06-13T04:06:04.691Z,56.98
2017-06-13T04:07:14.731Z,56.79
2017-06-13T04:08:25.135Z,56.59
2017-06-13T04:09:35.476Z,56.79
2017-06-13T04:10:45.800Z,56.88
2017-06-13T04:11:56.145Z,57.01
2017-06-13T04:13:06.504Z,56.59
2017-06-13T04:14:16.890Z,56.43
2017-06-13T04:15:27.254Z,56.52
2017-06-13T04:16:37.313Z,56.52
2017-06-13T04:17:47.669Z,55.76
2017-06-13T04:18:58.026Z,53.11
2017-06-13T04:20:08.423Z,51.3
2017-06-13T04:21:18.135Z,50.07
2017-06-13T04:22:28.475Z,49.49
2017-06-13T04:23:38.513Z,49.07
2017-06-13T04:24:48.861Z,49.22
2017-06-13T04:25:59.278Z,49.27
2017-06-13T04:27:08.992Z,49.22
2017-06-13T04:28:19.020Z,49.33
2017-06-13T04:29:29.377Z,49.07
2017-06-13T04:30:39.710Z,49.21
2017-06-13T04:31:49.740Z,49.24
2017-06-13T04:33:00.097Z,49.36
2017-06-13T04:34:10.134Z,49.29
2017-06-13T04:35:20.490Z,49.6
2017-06-13T04:36:30.853Z,49.6
2017-06-13T04:37:41.219Z,49.53
2017-06-13T04:38:51.572Z,49.36
2017-06-13T04:40:01.934Z,49.85
2017-06-13T04:41:12.280Z,49.65
2017-06-13T04:42:22.016Z,49.58
2017-06-13T04:43:32.373Z,49.7
2017-06-13T04:44:42.724Z,49.41
2017-06-13T04:45:53.059Z,49.53
2017-06-13T04:47:03.121Z,49.82
2017-06-13T04:48:13.462Z,49.63
2017-06-13T04:49:23.864Z,49.65
2017-06-13T04:50:34.204Z,49.55
2017-06-13T04:51:44.552Z,49.55
2017-06-13T04:52:54.928Z,49.35
2017-06-13T04:54:05.289Z,49.16
2017-06-13T04:55:15.326Z,49.35
2017-06-13T04:56:25.673Z,49.16
2017-06-13T04:57:36.011Z,49.38
2017-06-13T04:58:46.358Z,49.28
2017-06-13T04:59:56.714Z,49.18
2017-06-13T05:01:07.114Z,48.89
2017-06-13T05:02:17.498Z,49.01
2017-06-13T05:03:27.524Z,48.52
2017-06-13T05:04:37.810Z,48.94
2017-06-13T05:05:47.853Z,48.94
2017-06-13T05:06:58.212Z,49.13
2017-06-13T05:08:08.246Z,48.74
2017-06-13T05:09:18.313Z,48.83
2017-06-13T05:10:28.655Z,48.83
2017-06-13T05:11:39.010Z,48.94
2017-06-13T05:12:49.153Z,48.94
2017-06-13T05:13:59.504Z,49.04
2017-06-13T05:15:09.238Z,49.13
2017-06-13T05:16:18.962Z,49.33
2017-06-13T05:17:28.998Z,49.4
2017-06-13T05:18:39.118Z,49.7
2017-06-13T05:19:49.473Z,50.09
2017-06-13T05:20:59.547Z,50.39
2017-06-13T05:22:09.603Z,50.37
2017-06-13T05:23:19.950Z,50.37
2017-06-13T05:24:30.301Z,50.46
2017-06-13T05:25:40.654Z,50.54
2017-06-13T05:26:50.999Z,50.46
2017-06-13T05:28:01.351Z,50.26
2017-06-13T05:29:11.701Z,50.46
2017-06-13T05:30:21.818Z,50.24
2017-06-13T05:31:32.215Z,50.24
2017-06-13T05:32:42.564Z,50.14
2017-06-13T05:33:52.599Z,50.04
2017-06-13T05:35:02.966Z,50.24
2017-06-13T05:36:13.074Z,49.82
2017-06-13T05:37:23.125Z,50.02
2017-06-13T05:38:33.476Z,50.02
2017-06-13T05:39:43.820Z,50.39
2017-06-13T05:40:53.850Z,50.49
2017-06-13T05:42:04.242Z,50.29
2017-06-13T05:43:14.579Z,50.16
2017-06-13T05:44:24.985Z,50.29
2017-06-13T05:45:35.052Z,50.46
2017-06-13T05:46:45.394Z,50.19
2017-06-13T05:47:55.483Z,49.99
2017-06-13T05:49:05.838Z,50.19
2017-06-13T05:50:15.884Z,50.39
2017-06-13T05:51:25.926Z,50.27
2017-06-13T05:52:36.278Z,50.16
2017-06-13T05:53:46.689Z,50.37
2017-06-13T05:54:57.042Z,50.16
2017-06-13T05:56:07.418Z,50.34
2017-06-13T05:57:17.785Z,50.24
2017-06-13T05:58:28.133Z,50.63
2017-06-13T05:59:38.531Z,50.83
2017-06-13T06:00:48.992Z,50.81
2017-06-13T06:01:59.063Z,50.88
2017-06-13T06:03:09.089Z,51.27
2017-06-13T06:04:19.130Z,51.54
2017-06-13T06:05:29.530Z,51.64
2017-06-13T06:06:39.868Z,51.22
2017-06-13T06:07:50.225Z,52.27
2017-06-13T06:09:00.577Z,52.15
2017-06-13T06:10:10.930Z,52.05
2017-06-13T06:11:21.332Z,51.93
2017-06-13T06:12:31.069Z,52.22
2017-06-13T06:13:41.110Z,52.29
2017-06-13T06:14:51.152Z,52.37
2017-06-13T06:16:01.508Z,52.47
2017-06-13T06:17:11.881Z,52.17
2017-06-13T06:18:22.232Z,52.44
2017-06-13T06:19:32.574Z,52.25
2017-06-13T06:20:42.297Z,52.34
2017-06-13T06:21:52.666Z,52.25
2017-06-13T06:23:02.754Z,52.44
2017-06-13T06:24:13.100Z,52.15
2017-06-13T06:25:22.850Z,52.34
2017-06-13T06:26:33.196Z,52.44
2017-06-13T06:27:43.552Z,52.61
2017-06-13T06:28:53.949Z,52.51
2017-06-13T06:30:04.293Z,52.7
2017-06-13T06:31:14.648Z,52.61
2017-06-13T06:32:25.001Z,52.58
2017-06-13T06:33:35.337Z,53.14
2017-06-13T06:34:45.722Z,53.07
2017-06-13T06:35:56.075Z,53.24
2017-06-13T06:37:06.419Z,53.34
2017-06-13T06:38:16.453Z,53.34
2017-06-13T06:39:26.824Z,52.85
2017-06-13T06:40:37.241Z,53.11
2017-06-13T06:41:47.584Z,52.73
2017-06-13T06:42:57.939Z,52.92
2017-06-13T06:44:08.289Z,53.38
2017-06-13T06:45:18.635Z,53.28
2017-06-13T06:46:29.089Z,53.26
2017-06-13T06:47:39.442Z,54.03
2017-06-13T06:48:49.164Z,53.55
2017-06-13T06:49:59.515Z,53.62
2017-06-13T06:51:09.868Z,53.52
2017-06-13T06:52:20.258Z,53.89
2017-06-13T06:53:30.293Z,53.62
2017-06-13T06:54:40.666Z,53.69
2017-06-13T06:55:50.398Z,53.89
2017-06-13T06:57:00.741Z,54.08
2017-06-13T06:58:11.141Z,54.25
2017-06-13T06:59:21.498Z,54.44
2017-06-13T07:00:31.522Z,54.25
2017-06-13T07:01:41.868Z,54.44
2017-06-13T07:02:51.925Z,54.44
2017-06-13T07:04:02.317Z,54.35
2017-06-13T07:05:12.656Z,54.15
2017-06-13T07:06:23.005Z,54.35
2017-06-13T07:07:33.373Z,54.35
2017-06-13T07:08:43.718Z,54.22
2017-06-13T07:09:54.144Z,54.42
2017-06-13T07:11:04.495Z,54.61
2017-06-13T07:12:14.538Z,54.52
2017-06-13T07:13:24.888Z,54.52
2017-06-13T07:14:35.251Z,54.71
2017-06-13T07:15:45.645Z,54.9
2017-06-13T07:16:55.691Z,54.78
2017-06-13T07:18:05.412Z,54.78
2017-06-13T07:19:15.762Z,54.58
2017-06-13T07:20:26.110Z,55.07
2017-06-13T07:21:36.513Z,54.85
2017-06-13T07:22:46.570Z,54.85
2017-06-13T07:23:56.917Z,54.75
2017-06-13T07:25:07.257Z,54.94
2017-06-13T07:26:17.600Z,54.85
2017-06-13T07:27:27.097Z,55.04
2017-06-13T07:28:37.134Z,54.75
2017-06-13T07:29:47.185Z,54.75
2017-06-13T07:30:57.239Z,54.66
2017-06-13T07:32:07.605Z,54.36
2017-06-13T07:33:17.702Z,54.66
2017-06-13T07:34:28.037Z,54.46
2017-06-13T07:35:38.380Z,54.66
2017-06-13T07:36:48.445Z,54.46
2017-06-13T07:37:58.796Z,54.46
2017-06-13T07:39:08.567Z,54.36
2017-06-13T07:40:18.908Z,54.36
2017-06-13T07:41:28.928Z,54.27
2017-06-13T07:42:38.970Z,54.36
2017-06-13T07:43:49.342Z,54.29
2017-06-13T07:44:59.433Z,54.49
2017-06-13T07:46:09.484Z,54.1
2017-06-13T07:47:19.540Z,54.2
2017-06-13T07:48:29.890Z,54.2
2017-06-13T07:49:40.240Z,54.1
2017-06-13T07:50:50.647Z,54.39
2017-06-13T07:52:00.681Z,54.58
2017-06-13T07:53:10.740Z,54.29
2017-06-13T07:54:21.077Z,54.32
2017-06-13T07:55:31.105Z,54.22
2017-06-13T07:56:41.202Z,54.32
2017-06-13T07:57:51.262Z,54.13
2017-06-13T07:59:01.621Z,54.32
2017-06-13T08:00:11.667Z,54.32
2017-06-13T08:01:22.040Z,54.35
2017-06-13T08:02:32.442Z,54.13
2017-06-13T08:03:42.805Z,54.54
2017-06-13T08:04:53.168Z,54.61
2017-06-13T08:06:03.204Z,54.61
2017-06-13T08:07:13.568Z,54.22
2017-06-13T08:08:23.932Z,54.61
2017-06-13T08:09:34.285Z,54.61
2017-06-13T08:10:44.335Z,54.32
2017-06-13T08:11:54.083Z,54.13
2017-06-13T08:13:04.440Z,54.15
2017-06-13T08:14:14.854Z,54.54
2017-06-13T08:15:24.949Z,54.54
2017-06-13T08:16:35.324Z,54.15
2017-06-13T08:17:45.692Z,54.32
2017-06-13T08:18:56.040Z,54.15
2017-06-13T08:20:06.450Z,54.15
2017-06-13T08:21:16.502Z,54.15
2017-06-13T08:22:26.536Z,54.64
2017-06-13T08:23:36.879Z,54.25
2017-06-13T08:24:47.233Z,54.54
2017-06-13T08:25:56.999Z,54.35
2017-06-13T08:27:07.021Z,54.25
2017-06-13T08:28:17.356Z,54.18
2017-06-13T08:29:27.397Z,54.38
2017-06-13T08:30:37.745Z,54.38
2017-06-13T08:31:47.839Z,54.38
2017-06-13T08:32:57.875Z,54.6
2017-06-13T08:34:08.230Z,54.4
2017-06-13T08:35:18.284Z,54.6
2017-06-13T08:36:28.340Z,54.69
2017-06-13T08:37:38.724Z,54.69
2017-06-13T08:38:49.088Z,54.6
2017-06-13T08:39:58.826Z,54.69
2017-06-13T08:41:08.870Z,54.5
2017-06-13T08:42:18.908Z,54.3
2017-06-13T08:43:29.271Z,54.3
2017-06-13T08:44:39.628Z,54.5
2017-06-13T08:45:49.989Z,54.6
2017-06-13T08:46:59.720Z,54.3
2017-06-13T08:48:10.119Z,54.4
2017-06-13T08:49:20.490Z,54.3
2017-06-13T08:50:30.847Z,54.79
2017-06-13T08:51:40.881Z,54.21
2017-06-13T08:52:51.244Z,54.21
2017-06-13T08:54:01.647Z,54.69
2017-06-13T08:55:11.996Z,54.5
2017-06-13T08:56:22.026Z,54.52
2017-06-13T08:57:32.371Z,54.33
2017-06-13T08:58:42.420Z,54.62
2017-06-13T08:59:52.501Z,54.62
2017-06-13T09:01:02.877Z,54.72
2017-06-13T09:02:13.221Z,54.62
2017-06-13T09:03:23.567Z,54.43
2017-06-13T09:04:33.312Z,54.62
2017-06-13T09:05:43.729Z,54.43
2017-06-13T09:06:54.082Z,54.55
2017-06-13T09:08:03.820Z,54.43
2017-06-13T09:09:13.871Z,54.43
2017-06-13T09:10:24.262Z,54.46
2017-06-13T09:11:34.695Z,54.46
2017-06-13T09:12:45.066Z,54.36
2017-06-13T09:13:55.416Z,54.46
2017-06-13T09:15:05.771Z,54.36
2017-06-13T09:16:16.120Z,54.46
2017-06-13T09:17:26.529Z,54.58
2017-06-13T09:18:36.877Z,54.58
2017-06-13T09:19:46.653Z,54.58
2017-06-13T09:20:56.696Z,54.68
2017-06-13T09:22:07.149Z,54.58
2017-06-13T09:23:17.506Z,54.48
2017-06-13T09:24:27.848Z,54.38
2017-06-13T09:25:37.893Z,54.38
2017-06-13T09:26:48.267Z,54.48
2017-06-13T09:27:58.311Z,54.48
2017-06-13T09:29:08.404Z,54.77
2017-06-13T09:30:18.435Z,54.7
2017-06-13T09:31:28.803Z,54.7
2017-06-13T09:32:39.151Z,54.21
2017-06-13T09:33:49.502Z,54.21
2017-06-13T09:34:59.613Z,54.21
2017-06-13T09:36:09.331Z,54.21
2017-06-13T09:37:19.704Z,54.21
2017-06-13T09:38:30.059Z,54.41
2017-06-13T09:39:40.747Z,54.41
2017-06-13T09:40:51.179Z,54.6
2017-06-13T09:42:01.525Z,54.44
2017-06-13T09:43:11.885Z,54.44
2017-06-13T09:44:21.929Z,54.5
2017-06-13T09:45:32.280Z,54.44
2017-06-13T09:46:42.052Z,54.53
2017-06-13T09:47:52.084Z,54.63
2017-06-13T09:49:02.454Z,54.5
2017-06-13T09:50:12.167Z,54.73
2017-06-13T09:51:22.216Z,54.63
2017-06-13T09:52:32.302Z,54.34
2017-06-13T09:53:42.653Z,54.34
2017-06-13T09:54:53.024Z,54.24
2017-06-13T09:56:03.375Z,54.24
2017-06-13T09:57:13.424Z,54.44
2017-06-13T09:58:23.506Z,54.63
2017-06-13T09:59:33.896Z,54.24
2017-06-13T10:00:44.255Z,54.34
2017-06-13T10:01:54.286Z,54.34
2017-06-13T10:03:04.642Z,54.27
2017-06-13T10:04:14.989Z,54.36
2017-06-13T10:05:25.057Z,54.27
2017-06-13T10:06:35.104Z,54.27
2017-06-13T10:07:45.156Z,53.81
2017-06-13T10:08:55.276Z,54.79
2017-06-13T10:10:05.382Z,54.2
2017-06-13T10:18:06.009Z,54.32
2017-06-13T10:19:15.738Z,54.42
2017-06-13T10:20:26.140Z,54.49
2017-06-13T10:21:35.868Z,54.52
2017-06-13T10:22:45.906Z,54.71
2017-06-13T10:23:56.328Z,54.32
2017-06-13T10:25:06.684Z,54.32
2017-06-13T10:26:16.731Z,54.42
2017-06-13T10:27:26.789Z,54.52
2017-06-13T10:28:37.147Z,54.32
2017-06-13T10:29:47.547Z,54.22
2017-06-13T10:30:57.926Z,54.44
2017-06-13T10:32:07.983Z,53.96
2017-06-13T10:33:18.331Z,54.83
2017-06-13T10:34:28.679Z,54.35
2017-06-13T10:35:39.132Z,54.74
2017-06-13T10:36:49.225Z,54.25
2017-06-13T10:37:59.589Z,54.35
2017-06-13T10:39:09.961Z,54.17
2017-06-13T10:40:20.342Z,54.38
2017-06-13T10:41:30.768Z,54.08
2017-06-13T10:42:41.153Z,54.77
2017-06-13T10:43:51.223Z,54.38
2017-06-13T10:45:01.605Z,54.67
2017-06-13T10:46:11.666Z,54.47
2017-06-13T10:47:22.072Z,54.47
2017-06-13T10:48:32.435Z,54.47
2017-06-13T10:49:42.486Z,54.47
2017-06-13T10:50:52.540Z,54.79
2017-06-13T10:52:02.280Z,54.11
2017-06-13T10:53:12.692Z,54.3
2017-06-13T10:54:22.749Z,54.4
2017-06-13T10:55:33.131Z,54.13
2017-06-13T10:56:43.505Z,54.11
2017-06-13T10:57:53.862Z,54.43
2017-06-13T10:59:04.396Z,54.13
2017-06-13T11:00:14.776Z,54.23
2017-06-13T11:01:25.160Z,54.43
2017-06-13T11:02:35.518Z,54.13
2017-06-13T11:03:45.262Z,54.13
2017-06-13T11:04:55.677Z,54.03
2017-06-13T11:06:06.042Z,54.16
2017-06-13T11:07:16.418Z,54.25
2017-06-13T11:08:26.775Z,54.46
2017-06-13T11:09:36.835Z,54.16
2017-06-13T11:10:47.053Z,53.96
2017-06-13T11:11:57.407Z,54.16
2017-06-13T11:13:07.772Z,54.36
2017-06-13T11:14:18.133Z,54.16
2017-06-13T11:15:28.185Z,54.16
2017-06-13T11:16:38.610Z,54.16
2017-06-13T11:17:49.013Z,54.16
2017-06-13T11:18:59.076Z,53.96
2017-06-13T11:20:09.443Z,53.96
2017-06-13T11:21:19.814Z,54.09
2017-06-13T11:22:30.284Z,54.06
2017-06-13T11:23:40.346Z,54.19
2017-06-13T11:24:50.403Z,54.06
2017-06-13T11:26:00.772Z,54.09
2017-06-13T11:27:11.142Z,54.09
2017-06-13T11:28:21.274Z,54.02
2017-06-13T11:29:30.391Z,54.02
2017-06-13T11:30:40.435Z,54.21
2017-06-13T11:31:50.800Z,54.31
2017-06-13T11:33:01.154Z,53.82
2017-06-13T11:34:11.839Z,53.82
2017-06-13T11:35:22.213Z,54.83
2017-06-13T11:36:32.590Z,54.77
2017-06-13T11:37:42.670Z,54.28
2017-06-13T11:38:53.010Z,54.41
2017-06-13T11:40:03.224Z,54.31
2017-06-13T11:41:13.375Z,54.21
2017-06-13T11:42:23.134Z,54.11
2017-06-13T11:43:33.493Z,54.11
2017-06-13T11:44:43.842Z,53.92
2017-06-13T11:45:53.754Z,54.04
2017-06-13T11:47:03.810Z,54.24
2017-06-13T11:48:14.234Z,54.24
2017-06-13T11:49:24.293Z,54.04
2017-06-13T11:50:34.060Z,54.14
2017-06-13T11:51:44.094Z,54.44
2017-06-13T11:52:54.459Z,53.55
2017-06-13T11:54:04.828Z,53.38
2017-06-13T11:55:15.190Z,53.67
2017-06-13T11:56:25.236Z,53.5
2017-06-13T11:57:35.644Z,53.6
2017-06-13T11:58:46.167Z,53.48
2017-06-13T11:59:56.219Z,53.6
2017-06-13T12:01:06.608Z,53.31
2017-06-13T12:02:17.006Z,53.53
2017-06-13T12:03:27.432Z,53.44
2017-06-13T12:04:37.474Z,53.23
2017-06-13T12:05:47.572Z,54.22
2017-06-13T12:06:57.941Z,54
2017-06-13T12:08:08.289Z,53.92
2017-06-13T12:09:18.717Z,53.63
2017-06-13T12:10:29.070Z,54.44
2017-06-13T12:11:39.441Z,54.39
2017-06-13T12:12:49.808Z,54.12
2017-06-13T12:14:00.173Z,53.73
2017-06-13T12:15:10.283Z,54.71
2017-06-13T12:16:20.671Z,55.64
2017-06-13T12:17:30.735Z,56.1
2017-06-13T12:18:40.783Z,55
2017-06-13T12:19:51.161Z,54.46
2017-06-13T12:21:01.677Z,54.46
2017-06-13T12:22:12.041Z,53.23
2017-06-13T12:23:22.391Z,53.23
2017-06-13T12:24:32.462Z,53.46
2017-06-13T12:25:42.837Z,53.49
2017-06-13T12:26:52.961Z,53.75
2017-06-13T12:28:02.708Z,53.29
2017-06-13T12:29:13.069Z,52.82
2017-06-13T12:30:23.419Z,53.02
2017-06-13T12:31:33.796Z,53.14
2017-06-13T12:32:44.216Z,52.85
2017-06-13T12:33:54.264Z,53.14
2017-06-13T12:35:04.650Z,52.85
2017-06-13T12:36:15.041Z,53.64
2017-06-13T12:37:25.415Z,53.09
2017-06-13T12:38:35.834Z,52.82
2017-06-13T12:39:45.868Z,53.19
2017-06-13T12:40:56.249Z,53.19
2017-06-13T12:42:06.315Z,53.19
2017-06-13T12:43:16.062Z,53.19
2017-06-13T12:44:26.164Z,53.51
2017-06-13T12:45:36.531Z,53.61
2017-06-13T12:46:46.579Z,53.81
2017-06-13T12:47:56.956Z,53.54
2017-06-13T12:49:07.325Z,53.93
2017-06-13T12:50:17.429Z,52.78
2017-06-13T12:51:27.454Z,53.07
2017-06-13T12:52:37.481Z,52.5
2017-06-13T12:53:47.539Z,53.02
2017-06-13T12:54:57.937Z,52.43
2017-06-13T12:56:08.369Z,52.53
2017-06-13T12:57:18.432Z,52.63
2017-06-13T12:58:28.812Z,52.92
2017-06-13T12:59:39.196Z,52.85
2017-06-13T13:00:49.555Z,53.22
2017-06-13T13:01:59.972Z,53.81
2017-06-13T13:03:10.033Z,53.59
2017-06-13T13:04:20.418Z,53.39
2017-06-13T13:05:30.823Z,53.66
2017-06-13T13:06:41.185Z,53.96
2017-06-13T13:07:51.553Z,53.83
2017-06-13T13:09:01.598Z,53.83
2017-06-13T13:10:11.965Z,53.66
2017-06-13T13:11:21.709Z,53.66
2017-06-13T13:12:31.775Z,53.56
2017-06-13T13:13:42.210Z,53.66
2017-06-13T13:14:52.579Z,53.56
2017-06-13T13:16:02.950Z,53.56
2017-06-13T13:17:13.313Z,53.76
2017-06-13T13:18:23.670Z,53.76
2017-06-13T13:19:34.078Z,53.56
2017-06-13T13:20:44.171Z,53.56
2017-06-13T13:21:54.565Z,53.36
2017-06-13T13:23:04.963Z,53.66
2017-06-13T13:24:15.020Z,53.76
2017-06-13T13:25:25.429Z,54.03
2017-06-13T13:26:35.813Z,54.43
2017-06-13T13:27:46.178Z,54.43
2017-06-13T13:28:56.239Z,54.62
2017-06-13T13:30:06.620Z,53.64
2017-06-13T13:31:16.358Z,53.74
2017-06-13T13:32:26.718Z,53.74
2017-06-13T13:33:37.080Z,53.74
2017-06-13T13:34:47.469Z,53.44
2017-06-13T13:35:57.860Z,53.36
2017-06-13T13:37:08.220Z,52.97
2017-06-13T13:38:18.622Z,53.66
2017-06-13T13:39:28.980Z,53.24
2017-06-13T13:40:39.398Z,53.14
2017-06-13T13:41:49.775Z,53.27
2017-06-13T13:43:00.152Z,53.56
2017-06-13T13:44:10.535Z,53.36
2017-06-13T13:45:20.627Z,53.56
2017-06-13T13:46:31.073Z,53.05
2017-06-13T13:47:41.461Z,53.27
2017-06-13T13:48:51.804Z,53.47
2017-06-13T13:50:01.845Z,53.76
2017-06-13T13:51:12.210Z,53.69
2017-06-13T13:52:22.313Z,53.59
2017-06-13T13:53:32.673Z,53.42
2017-06-13T13:54:43.032Z,53.02
2017-06-13T13:55:53.393Z,53.15
2017-06-13T13:57:03.441Z,53.05
2017-06-13T13:58:13.867Z,53.44
2017-06-13T13:59:24.247Z,53.05
2017-06-13T14:00:34.621Z,53.84
2017-06-13T14:01:44.718Z,53.61
2017-06-13T14:02:55.081Z,53.71
2017-06-13T14:04:05.516Z,53.78
2017-06-13T14:05:15.952Z,53.69
2017-06-13T14:06:26.326Z,53.59
2017-06-13T14:07:36.404Z,53.66
2017-06-13T14:08:46.780Z,53.76
2017-06-13T14:09:56.887Z,53.56
2017-06-13T14:11:07.287Z,53.76
2017-06-13T14:12:17.384Z,53.76
2017-06-13T14:13:27.453Z,53.47
2017-06-13T14:14:37.834Z,53.76
2017-06-13T14:15:48.262Z,54.64
2017-06-13T14:16:58.310Z,54.72
2017-06-13T14:18:08.076Z,54.72
2017-06-13T14:19:18.438Z,54.62
2017-06-13T14:20:28.825Z,54.43
2017-06-13T14:21:39.270Z,54.72
2017-06-13T14:22:49.779Z,54.43
2017-06-13T14:24:00.219Z,54.3
2017-06-13T14:25:10.571Z,54
2017-06-13T14:26:20.640Z,54.52
2017-06-13T14:27:30.756Z,54.39
2017-06-13T14:28:41.130Z,54.6
2017-06-13T14:29:51.502Z,54
2017-06-13T14:31:00.936Z,54.6
2017-06-13T14:32:10.968Z,54.69
2017-06-13T14:33:21.388Z,54.3
2017-06-13T14:34:31.791Z,54.49
2017-06-13T14:35:42.155Z,54.2
2017-06-13T14:36:52.554Z,54.27
2017-06-13T14:38:02.920Z,54.17
2017-06-13T14:39:13.354Z,54.27
2017-06-13T14:40:23.412Z,54.27
2017-06-13T14:41:33.791Z,54.17
2017-06-13T14:42:44.165Z,54.27
2017-06-13T14:43:54.535Z,54.25
2017-06-13T14:45:04.656Z,54.54
2017-06-13T14:46:15.053Z,54.54
2017-06-13T14:47:25.439Z,54.54
2017-06-13T14:48:35.814Z,54.64
2017-06-13T14:49:46.204Z,54.54
2017-06-13T14:50:56.326Z,54.44
2017-06-13T14:52:06.694Z,54.35
2017-06-13T14:53:16.760Z,54.64
2017-06-13T14:54:27.159Z,54.14
2017-06-13T14:55:37.227Z,54.35
2017-06-13T14:56:47.055Z,54.64
2017-06-13T14:57:57.434Z,54.52
2017-06-13T14:59:07.485Z,54.61
2017-06-13T15:00:17.851Z,54.81
2017-06-13T15:01:27.898Z,54.61
2017-06-13T15:02:38.343Z,54.61
2017-06-13T15:03:48.391Z,54.61
2017-06-13T15:04:58.442Z,54.81
2017-06-13T15:06:08.497Z,54.71
2017-06-13T15:07:18.866Z,54.81
2017-06-13T15:08:28.667Z,54.61
2017-06-13T15:09:38.421Z,55
2017-06-13T15:10:48.480Z,55.08
2017-06-13T15:11:59.126Z,54.78
2017-06-13T15:13:09.540Z,54.98
2017-06-13T15:14:19.640Z,54.68
2017-06-13T15:15:29.376Z,54.68
2017-06-13T15:16:39.435Z,54.78
2017-06-13T15:17:49.788Z,54.78
2017-06-13T15:19:00.150Z,54.75
2017-06-13T15:20:10.263Z,54.75
2017-06-13T15:21:20.627Z,54.66
2017-06-13T15:22:30.680Z,54.95
2017-06-13T15:23:41.060Z,54.95
2017-06-13T15:24:51.441Z,55.15
2017-06-13T15:26:01.848Z,55.05
2017-06-13T15:27:11.586Z,54.93
2017-06-13T15:28:21.983Z,55.05
2017-06-13T15:29:32.356Z,55.12
2017-06-13T15:30:42.734Z,54.83
2017-06-13T15:31:53.163Z,54.83
2017-06-13T15:33:03.542Z,54.75
2017-06-13T15:34:13.898Z,54.73
2017-06-13T15:35:24.276Z,54.85
2017-06-13T15:36:34.903Z,54.93
2017-06-13T15:37:44.857Z,55.12
2017-06-13T15:38:54.602Z,54.63
2017-06-13T15:40:04.647Z,54.63
2017-06-13T15:41:14.712Z,54.83
2017-06-13T15:42:25.061Z,54.93
2017-06-13T15:43:35.497Z,54.9